createdAt,value
2017-12-14T00:00:44.236Z,982.2
2017-12-14T00:01:45.630Z,982.1
2017-12-14T00:02:47.055Z,982.2
2017-12-14T00:03:48.458Z,982.2
2017-12-14T00:04:49.858Z,982.2
2017-12-14T00:05:51.279Z,982.3
2017-12-14T00:06:52.678Z,982.3
2017-12-14T00:07:54.077Z,982.3
2017-12-14T00:08:55.497Z,982.2
2017-12-14T00:09:57.271Z,982.3
2017-12-14T00:10:58.683Z,982.3
2017-12-14T00:12:00.090Z,982.4
2017-12-14T00:13:01.565Z,982.4
2017-12-14T00:14:02.966Z,982.4
2017-12-14T00:15:04.445Z,982.5
2017-12-14T00:16:05.842Z,982.5
2017-12-14T00:17:07.326Z,982.6
2017-12-14T00:18:08.724Z,982.6
2017-12-14T00:19:10.123Z,982.7
2017-12-14T00:20:11.546Z,982.8
2017-12-14T00:21:12.946Z,982.8
2017-12-14T00:22:14.347Z,982.8
2017-12-14T00:23:15.762Z,982.7
2017-12-14T00:24:17.162Z,982.8
2017-12-14T00:25:18.646Z,982.8
2017-12-14T00:26:20.049Z,982.8
2017-12-14T00:27:21.529Z,982.9
2017-12-14T00:28:22.923Z,982.8
2017-12-14T00:29:24.405Z,982.8
2017-12-14T00:30:26.350Z,982.8
2017-12-14T00:31:27.808Z,982.9
2017-12-14T00:32:29.261Z,982.7
2017-12-14T00:33:30.693Z,982.8
2017-12-14T00:34:32.100Z,982.8
2017-12-14T00:35:33.560Z,982.8
2017-12-14T00:36:34.958Z,982.8
2017-12-14T00:37:36.440Z,982.8
2017-12-14T00:38:37.844Z,982.8
2017-12-14T00:39:39.323Z,982.8
2017-12-14T00:40:40.713Z,982.7
2017-12-14T00:41:42.206Z,982.8
2017-12-14T00:42:43.599Z,982.6
2017-12-14T00:43:45.044Z,982.7
2017-12-14T00:44:47.546Z,982.7
2017-12-14T00:45:48.941Z,982.7
2017-12-14T00:46:50.345Z,982.7
2017-12-14T00:47:51.791Z,982.7
2017-12-14T00:48:56.553Z,982.6
2017-12-14T00:49:58.054Z,982.5
2017-12-14T00:50:59.418Z,982.6
2017-12-14T00:52:00.906Z,982.6
2017-12-14T00:53:02.297Z,982.6
2017-12-14T00:54:03.786Z,982.6
2017-12-14T00:55:05.189Z,982.6
2017-12-14T00:56:06.666Z,982.6
2017-12-14T00:57:08.074Z,982.6
2017-12-14T00:58:09.843Z,982.6
2017-12-14T00:59:11.228Z,982.5
2017-12-14T01:00:12.636Z,982.6
2017-12-14T01:01:14.073Z,982.6
2017-12-14T01:02:15.473Z,982.4
2017-12-14T01:03:16.863Z,982.4
2017-12-14T01:04:18.471Z,982.4
2017-12-14T01:05:19.871Z,982.4
2017-12-14T01:06:21.381Z,982.4
2017-12-14T01:07:22.775Z,982.5
2017-12-14T01:08:24.259Z,982.4
2017-12-14T01:09:25.658Z,982.5
2017-12-14T01:10:27.147Z,982.5
2017-12-14T01:11:28.539Z,982.5
2017-12-14T01:12:30.022Z,982.5
2017-12-14T01:13:31.417Z,982.5
2017-12-14T01:14:32.899Z,982.5
2017-12-14T01:15:34.297Z,982.6
2017-12-14T01:16:35.782Z,982.6
2017-12-14T01:17:37.180Z,982.7
2017-12-14T01:18:38.582Z,982.7
2017-12-14T01:19:40.040Z,982.7
2017-12-14T01:20:41.436Z,982.7
2017-12-14T01:21:42.844Z,982.7
2017-12-14T01:22:44.335Z,982.8
2017-12-14T01:23:45.724Z,982.8
2017-12-14T01:24:47.143Z,982.8
2017-12-14T01:25:48.652Z,982.8
2017-12-14T01:26:50.047Z,982.8
2017-12-14T01:27:51.526Z,982.9
2017-12-14T01:28:52.921Z,983.0
2017-12-14T01:29:54.406Z,982.9
2017-12-14T01:30:55.802Z,983.0
2017-12-14T01:31:57.287Z,982.9
2017-12-14T01:32:58.690Z,983.0
2017-12-14T01:34:00.088Z,983.0
2017-12-14T01:35:01.508Z,983.0
2017-12-14T01:36:02.902Z,983.0
2017-12-14T01:37:04.300Z,982.9
2017-12-14T01:38:05.723Z,982.9
2017-12-14T01:39:07.125Z,982.9
2017-12-14T01:40:08.523Z,982.8
2017-12-14T01:41:09.941Z,982.8
2017-12-14T01:42:11.413Z,982.8
2017-12-14T01:43:12.924Z,982.8
2017-12-14T01:44:14.328Z,982.8
2017-12-14T01:45:15.808Z,982.9
2017-12-14T01:46:17.207Z,982.7
2017-12-14T01:47:18.684Z,982.8
2017-12-14T01:48:20.088Z,982.7
2017-12-14T01:49:21.584Z,982.8
2017-12-14T01:50:22.994Z,982.7
2017-12-14T01:51:24.447Z,982.7
2017-12-14T01:52:25.849Z,982.7
2017-12-14T01:53:27.327Z,982.6
2017-12-14T01:54:28.728Z,982.7
2017-12-14T01:55:30.124Z,982.7
2017-12-14T01:56:31.545Z,982.6
2017-12-14T01:57:32.948Z,982.6
2017-12-14T01:58:34.344Z,982.6
2017-12-14T01:59:35.768Z,982.7
2017-12-14T02:00:37.167Z,982.6
2017-12-14T02:01:38.567Z,982.7
2017-12-14T02:02:40.066Z,982.7
2017-12-14T02:03:41.826Z,982.7
2017-12-14T02:04:43.228Z,982.8
2017-12-14T02:05:44.730Z,982.7
2017-12-14T02:06:46.151Z,982.7
2017-12-14T02:07:47.547Z,982.7
2017-12-14T02:08:49.036Z,982.7
2017-12-14T02:09:50.456Z,982.7
2017-12-14T02:10:51.915Z,982.8
2017-12-14T02:11:53.312Z,982.8
2017-12-14T02:12:54.819Z,982.7
2017-12-14T02:13:56.302Z,982.7
2017-12-14T02:14:57.789Z,982.7
2017-12-14T02:15:59.199Z,982.6
2017-12-14T02:17:00.661Z,982.7
2017-12-14T02:18:02.058Z,982.7
2017-12-14T02:19:03.542Z,982.7
2017-12-14T02:20:04.939Z,982.7
2017-12-14T02:21:06.517Z,982.7
2017-12-14T02:22:07.966Z,982.7
2017-12-14T02:23:09.368Z,982.6
2017-12-14T02:24:10.761Z,982.6
2017-12-14T02:25:12.176Z,982.6
2017-12-14T02:26:13.580Z,982.6
2017-12-14T02:27:14.980Z,982.6
2017-12-14T02:28:16.451Z,982.5
2017-12-14T02:29:17.816Z,982.6
2017-12-14T02:30:19.231Z,982.5
2017-12-14T02:31:20.735Z,982.5
2017-12-14T02:32:22.131Z,982.5
2017-12-14T02:33:23.530Z,982.5
2017-12-14T02:34:24.954Z,982.5
2017-12-14T02:35:26.343Z,982.5
2017-12-14T02:36:27.830Z,982.5
2017-12-14T02:37:29.228Z,982.5
2017-12-14T02:38:30.705Z,982.5
2017-12-14T02:39:32.319Z,982.5
2017-12-14T02:40:33.717Z,982.4
2017-12-14T02:41:35.128Z,982.5
2017-12-14T02:42:36.526Z,982.5
2017-12-14T02:43:37.926Z,982.6
2017-12-14T02:44:39.351Z,982.5
2017-12-14T02:45:40.743Z,982.4
2017-12-14T02:46:42.134Z,982.5
2017-12-14T02:47:43.565Z,982.6
2017-12-14T02:48:44.964Z,982.5
2017-12-14T02:49:46.362Z,982.6
2017-12-14T02:50:47.792Z,982.6
2017-12-14T02:51:49.195Z,982.5
2017-12-14T02:52:50.673Z,982.6
2017-12-14T02:53:52.063Z,982.6
2017-12-14T02:54:53.546Z,982.5
2017-12-14T02:55:54.943Z,982.5
2017-12-14T02:56:56.502Z,982.5
2017-12-14T02:57:58.176Z,982.5
2017-12-14T02:58:59.626Z,982.4
2017-12-14T03:00:01.016Z,982.5
2017-12-14T03:01:02.496Z,982.4
2017-12-14T03:02:03.894Z,982.4
2017-12-14T03:03:05.387Z,982.4
2017-12-14T03:04:06.787Z,982.4
2017-12-14T03:05:08.258Z,982.4
2017-12-14T03:06:09.656Z,982.4
2017-12-14T03:07:11.137Z,982.4
2017-12-14T03:08:12.533Z,982.4
2017-12-14T03:09:14.021Z,982.4
2017-12-14T03:10:15.416Z,982.4
2017-12-14T03:11:16.815Z,982.3
2017-12-14T03:12:18.239Z,982.3
2017-12-14T03:13:19.640Z,982.3
2017-12-14T03:14:21.026Z,982.3
2017-12-14T03:15:22.456Z,982.3
2017-12-14T03:16:23.858Z,982.3
2017-12-14T03:17:25.255Z,982.3
2017-12-14T03:18:26.690Z,982.3
2017-12-14T03:19:28.096Z,982.2
2017-12-14T03:20:29.489Z,982.3
2017-12-14T03:21:30.996Z,982.3
2017-12-14T03:22:32.399Z,982.3
2017-12-14T03:23:33.884Z,982.2
2017-12-14T03:24:35.279Z,982.2
2017-12-14T03:25:36.763Z,982.3
2017-12-14T03:26:38.161Z,982.3
2017-12-14T03:27:39.644Z,982.3
2017-12-14T03:28:41.042Z,982.3
2017-12-14T03:29:42.527Z,982.2
2017-12-14T03:30:43.933Z,982.3
2017-12-14T03:31:45.325Z,982.3
2017-12-14T03:32:46.772Z,982.3
2017-12-14T03:33:48.168Z,982.4
2017-12-14T03:34:49.572Z,982.3
2017-12-14T03:35:51.059Z,982.3
2017-12-14T03:36:52.462Z,982.3
2017-12-14T03:37:53.860Z,982.4
2017-12-14T03:38:55.279Z,982.4
2017-12-14T03:39:56.677Z,982.4
2017-12-14T03:40:58.076Z,982.4
2017-12-14T03:41:59.496Z,982.4
2017-12-14T03:43:00.894Z,982.4
2017-12-14T03:44:02.410Z,982.4
2017-12-14T03:45:03.801Z,982.4
2017-12-14T03:46:05.258Z,982.3
2017-12-14T03:47:06.656Z,982.3
2017-12-14T03:48:08.135Z,982.3
2017-12-14T03:49:09.536Z,982.3
2017-12-14T03:50:11.020Z,982.3
2017-12-14T03:51:12.428Z,982.3
2017-12-14T03:52:13.815Z,982.3
2017-12-14T03:53:15.248Z,982.3
2017-12-14T03:54:16.643Z,982.4
2017-12-14T03:55:18.046Z,982.3
2017-12-14T03:56:19.458Z,982.3
2017-12-14T03:57:20.861Z,982.3
2017-12-14T03:58:22.389Z,982.3
2017-12-14T03:59:23.747Z,982.5
2017-12-14T04:00:25.144Z,982.4
2017-12-14T04:01:26.660Z,982.4
2017-12-14T04:02:28.064Z,982.5
2017-12-14T04:03:29.453Z,982.4
2017-12-14T04:04:30.878Z,982.5
2017-12-14T04:05:32.272Z,982.5
2017-12-14T04:06:33.670Z,982.4
2017-12-14T04:07:35.100Z,982.6
2017-12-14T04:08:36.492Z,982.6
2017-12-14T04:09:37.892Z,982.5
2017-12-14T04:10:39.316Z,982.5
2017-12-14T04:11:40.712Z,982.5
2017-12-14T04:12:42.111Z,982.5
2017-12-14T04:13:43.601Z,982.5
2017-12-14T04:14:44.932Z,982.5
2017-12-14T04:15:46.344Z,982.5
2017-12-14T04:16:47.854Z,982.5
2017-12-14T04:17:49.255Z,982.6
2017-12-14T04:18:50.733Z,982.5
2017-12-14T04:19:52.147Z,982.6
2017-12-14T04:20:53.616Z,982.6
2017-12-14T04:21:55.012Z,982.6
2017-12-14T04:22:56.497Z,982.7
2017-12-14T04:23:57.897Z,982.6
2017-12-14T04:24:59.376Z,982.6
2017-12-14T04:26:00.784Z,982.6
2017-12-14T04:27:02.174Z,982.7
2017-12-14T04:28:03.594Z,982.6
2017-12-14T04:29:04.997Z,982.6
2017-12-14T04:30:06.395Z,982.6
2017-12-14T04:31:07.816Z,982.7
2017-12-14T04:32:09.218Z,982.7
2017-12-14T04:33:10.615Z,982.6
2017-12-14T04:34:12.035Z,982.7
2017-12-14T04:35:13.856Z,982.7
2017-12-14T04:36:15.251Z,982.7
2017-12-14T04:37:16.660Z,982.7
2017-12-14T04:38:18.087Z,982.7
2017-12-14T04:39:19.469Z,982.7
2017-12-14T04:40:20.880Z,982.7
2017-12-14T04:41:22.279Z,982.7
2017-12-14T04:42:23.701Z,982.7
2017-12-14T04:43:25.204Z,982.7
2017-12-14T04:44:26.616Z,982.6
2017-12-14T04:45:28.084Z,982.6
2017-12-14T04:46:29.485Z,982.7
2017-12-14T04:47:30.964Z,982.6
2017-12-14T04:48:32.363Z,982.7
2017-12-14T04:49:33.846Z,982.7
2017-12-14T04:50:35.244Z,982.7
2017-12-14T04:51:36.651Z,982.6
2017-12-14T04:52:38.206Z,982.7
2017-12-14T04:53:39.604Z,982.7
2017-12-14T04:54:41.000Z,982.6
2017-12-14T04:55:42.486Z,982.7
2017-12-14T04:56:43.883Z,982.6
2017-12-14T04:57:45.290Z,982.6
2017-12-14T04:58:46.705Z,982.7
2017-12-14T04:59:48.143Z,982.7
2017-12-14T05:00:49.543Z,982.7
2017-12-14T05:01:51.040Z,982.7
2017-12-14T05:02:52.435Z,982.7
2017-12-14T05:03:53.831Z,982.7
2017-12-14T05:04:55.247Z,982.7
2017-12-14T05:05:56.646Z,982.7
2017-12-14T05:06:58.046Z,982.7
2017-12-14T05:07:59.465Z,982.8
2017-12-14T05:09:00.860Z,982.8
2017-12-14T05:10:02.352Z,982.8
2017-12-14T05:11:03.749Z,982.7
2017-12-14T05:12:05.228Z,982.7
2017-12-14T05:13:06.632Z,982.8
2017-12-14T05:14:08.111Z,982.8
2017-12-14T05:15:09.507Z,982.8
2017-12-14T05:16:11.000Z,982.8
2017-12-14T05:17:13.859Z,982.8
2017-12-14T05:18:16.248Z,982.8
2017-12-14T05:19:17.758Z,982.8
2017-12-14T05:20:19.169Z,982.8
2017-12-14T05:21:20.551Z,982.8
2017-12-14T05:22:21.986Z,982.9
2017-12-14T05:23:23.476Z,982.8
2017-12-14T05:24:24.969Z,982.8
2017-12-14T05:25:26.365Z,982.9
2017-12-14T05:26:27.850Z,982.9
2017-12-14T05:27:29.246Z,982.9
2017-12-14T05:28:30.740Z,982.9
2017-12-14T05:29:32.153Z,982.8
2017-12-14T05:30:33.638Z,982.9
2017-12-14T05:31:37.344Z,982.9
2017-12-14T05:32:38.720Z,982.9
2017-12-14T05:33:40.536Z,982.9
2017-12-14T05:34:41.987Z,982.9
2017-12-14T05:35:43.389Z,982.9
2017-12-14T05:36:44.813Z,983.0
2017-12-14T05:37:46.211Z,982.9
2017-12-14T05:38:47.693Z,982.9
2017-12-14T05:39:49.091Z,982.9
2017-12-14T05:40:50.574Z,982.9
2017-12-14T05:41:51.972Z,983.0
2017-12-14T05:42:53.455Z,983.0
2017-12-14T05:43:54.858Z,983.0
2017-12-14T05:44:56.340Z,983.0
2017-12-14T05:45:57.748Z,983.0
2017-12-14T05:46:59.217Z,983.0
2017-12-14T05:48:00.616Z,983.0
2017-12-14T05:49:04.479Z,983.0
2017-12-14T05:50:06.766Z,983.1
2017-12-14T05:51:08.751Z,983.2
2017-12-14T05:52:10.751Z,983.1
2017-12-14T05:53:12.767Z,983.2
2017-12-14T05:54:14.164Z,983.2
2017-12-14T05:55:15.561Z,983.2
2017-12-14T05:56:17.111Z,983.2
2017-12-14T05:57:18.513Z,983.0
2017-12-14T05:58:19.910Z,983.2
2017-12-14T05:59:21.416Z,983.2
2017-12-14T06:00:22.814Z,983.2
2017-12-14T06:01:24.211Z,983.4
2017-12-14T06:02:25.636Z,983.3
2017-12-14T06:03:27.035Z,983.5
2017-12-14T06:04:28.434Z,983.5
2017-12-14T06:05:29.870Z,983.6
2017-12-14T06:06:31.263Z,983.6
2017-12-14T06:07:32.660Z,983.6
2017-12-14T06:08:34.087Z,983.6
2017-12-14T06:09:35.485Z,983.7
2017-12-14T06:10:36.955Z,983.6
2017-12-14T06:11:38.352Z,983.6
2017-12-14T06:12:39.749Z,983.7
2017-12-14T06:13:42.219Z,983.6
2017-12-14T06:14:43.614Z,983.7
2017-12-14T06:15:45.013Z,983.8
2017-12-14T06:16:46.517Z,983.8
2017-12-14T06:17:47.916Z,983.9
2017-12-14T06:18:49.310Z,983.8
2017-12-14T06:19:50.735Z,983.9
2017-12-14T06:20:52.128Z,983.9
2017-12-14T06:21:53.617Z,984.0
2017-12-14T06:22:55.014Z,984.0
2017-12-14T06:23:56.411Z,984.1
2017-12-14T06:24:57.834Z,984.1
2017-12-14T06:25:59.234Z,984.2
2017-12-14T06:27:00.635Z,984.0
2017-12-14T06:28:02.062Z,984.2
2017-12-14T06:29:03.508Z,984.2
2017-12-14T06:30:04.944Z,984.3
2017-12-14T06:31:06.358Z,984.5
2017-12-14T06:32:07.834Z,984.4
2017-12-14T06:33:09.244Z,984.4
2017-12-14T06:34:10.701Z,984.5
2017-12-14T06:35:12.100Z,984.5
2017-12-14T06:36:13.579Z,984.4
2017-12-14T06:37:14.979Z,984.5
2017-12-14T06:38:16.469Z,984.6
2017-12-14T06:39:17.870Z,984.6
2017-12-14T06:40:19.367Z,984.6
2017-12-14T06:41:20.794Z,984.7
2017-12-14T06:42:22.241Z,984.7
2017-12-14T06:43:23.636Z,984.5
2017-12-14T06:44:25.035Z,984.6
2017-12-14T06:45:26.548Z,984.7
2017-12-14T06:46:27.943Z,984.8
2017-12-14T06:47:29.341Z,984.8
2017-12-14T06:48:30.761Z,985.0
2017-12-14T06:49:32.158Z,984.9
2017-12-14T06:50:34.674Z,985.0
2017-12-14T06:51:36.060Z,985.0
2017-12-14T06:52:37.461Z,985.0
2017-12-14T06:53:38.885Z,985.0
2017-12-14T06:54:40.287Z,985.2
2017-12-14T06:55:41.691Z,985.1
2017-12-14T06:56:43.107Z,985.2
2017-12-14T06:57:44.504Z,985.2
2017-12-14T06:58:45.898Z,985.3
2017-12-14T06:59:47.337Z,985.3
2017-12-14T07:00:48.741Z,985.3
2017-12-14T07:01:50.138Z,985.3
2017-12-14T07:02:51.658Z,985.3
2017-12-14T07:03:53.064Z,985.5
2017-12-14T07:04:54.454Z,985.6
2017-12-14T07:05:55.967Z,985.6
2017-12-14T07:06:57.364Z,985.5
2017-12-14T07:07:58.759Z,985.6
2017-12-14T07:09:00.183Z,985.5
2017-12-14T07:10:01.590Z,985.6
2017-12-14T07:11:03.066Z,985.7
2017-12-14T07:12:04.473Z,985.7
2017-12-14T07:13:05.947Z,985.7
2017-12-14T07:14:07.345Z,985.8
2017-12-14T07:15:08.828Z,985.7
2017-12-14T07:16:10.225Z,985.9
2017-12-14T07:17:11.709Z,985.8
2017-12-14T07:18:13.102Z,985.8
2017-12-14T07:19:14.589Z,985.8
2017-12-14T07:20:15.980Z,985.8
2017-12-14T07:21:17.468Z,985.9
2017-12-14T07:22:18.922Z,985.8
2017-12-14T07:23:20.349Z,986.0
2017-12-14T07:24:21.747Z,986.0
2017-12-14T07:25:23.150Z,986.0
2017-12-14T07:26:24.549Z,986.0
2017-12-14T07:27:26.009Z,986.1
2017-12-14T07:28:27.411Z,986.1
2017-12-14T07:29:28.822Z,986.2
2017-12-14T07:30:30.322Z,986.3
2017-12-14T07:31:31.730Z,986.2
2017-12-14T07:32:33.131Z,986.2
2017-12-14T07:33:34.550Z,986.2
2017-12-14T07:34:35.948Z,986.2
2017-12-14T07:35:37.350Z,986.3
2017-12-14T07:36:38.774Z,986.3
2017-12-14T07:37:40.166Z,986.4
2017-12-14T07:38:41.567Z,986.4
2017-12-14T07:39:42.991Z,986.5
2017-12-14T07:40:44.384Z,986.4
2017-12-14T07:41:45.868Z,986.4
2017-12-14T07:42:47.265Z,986.5
2017-12-14T07:43:48.670Z,986.5
2017-12-14T07:44:50.098Z,986.5
2017-12-14T07:45:51.483Z,986.5
2017-12-14T07:46:52.899Z,986.6
2017-12-14T07:47:54.406Z,986.5
2017-12-14T07:48:55.812Z,986.6
2017-12-14T07:49:57.208Z,986.6
2017-12-14T07:50:58.632Z,986.6
2017-12-14T07:52:00.029Z,986.6
2017-12-14T07:53:01.450Z,986.6
2017-12-14T07:54:02.953Z,986.5
2017-12-14T07:55:04.346Z,986.6
2017-12-14T07:56:05.750Z,986.7
2017-12-14T07:57:07.167Z,986.7
2017-12-14T07:58:08.569Z,986.6
2017-12-14T07:59:09.969Z,986.6
2017-12-14T08:00:11.487Z,986.6
2017-12-14T08:01:12.914Z,986.7
2017-12-14T08:02:14.373Z,986.7
2017-12-14T08:03:15.782Z,986.6
2017-12-14T08:04:17.182Z,986.6
2017-12-14T08:05:19.439Z,986.6
2017-12-14T08:06:20.840Z,986.6
2017-12-14T08:07:22.283Z,986.7
2017-12-14T08:08:23.728Z,986.6
2017-12-14T08:09:25.132Z,986.6
2017-12-14T08:10:26.533Z,986.7
2017-12-14T08:11:28.046Z,986.7
2017-12-14T08:12:29.448Z,986.6
2017-12-14T08:13:30.910Z,986.7
2017-12-14T08:14:32.384Z,986.6
2017-12-14T08:15:33.771Z,986.7
2017-12-14T08:16:35.170Z,986.6
2017-12-14T08:17:36.604Z,986.7
2017-12-14T08:18:38.042Z,986.7
2017-12-14T08:19:39.444Z,986.6
2017-12-14T08:20:40.910Z,986.6
2017-12-14T08:21:42.314Z,986.6
2017-12-14T08:22:43.790Z,986.7
2017-12-14T08:23:45.191Z,986.5
2017-12-14T08:24:46.591Z,986.6
2017-12-14T08:25:48.009Z,986.7
2017-12-14T08:26:49.411Z,986.7
2017-12-14T08:27:50.814Z,986.7
2017-12-14T08:28:52.344Z,986.8
2017-12-14T08:29:53.748Z,986.7
2017-12-14T08:30:55.147Z,986.8
2017-12-14T08:31:56.651Z,986.7
2017-12-14T08:32:58.053Z,986.8
2017-12-14T08:33:59.454Z,986.8
2017-12-14T08:35:00.871Z,986.7
2017-12-14T08:36:02.297Z,986.7
2017-12-14T08:37:03.696Z,986.8
2017-12-14T08:38:05.190Z,986.8
2017-12-14T08:39:06.589Z,986.8
2017-12-14T08:40:07.992Z,986.7
2017-12-14T08:41:09.410Z,986.8
2017-12-14T08:42:10.810Z,986.8
2017-12-14T08:43:12.213Z,986.9
2017-12-14T08:44:13.632Z,986.8
2017-12-14T08:45:15.034Z,986.8
2017-12-14T08:46:16.435Z,986.8
2017-12-14T08:47:17.957Z,986.9
2017-12-14T08:48:19.352Z,986.8
2017-12-14T08:49:20.758Z,986.8
2017-12-14T08:50:22.272Z,986.8
2017-12-14T08:51:23.702Z,986.8
2017-12-14T08:52:25.151Z,986.8
2017-12-14T08:53:26.553Z,986.9
2017-12-14T08:54:28.033Z,986.9
2017-12-14T08:55:29.460Z,986.9
2017-12-14T08:56:30.917Z,986.9
2017-12-14T08:57:32.317Z,986.9
2017-12-14T08:58:33.793Z,986.8
2017-12-14T08:59:35.202Z,986.9
2017-12-14T09:00:36.601Z,987.0
2017-12-14T09:01:38.115Z,987.0
2017-12-14T09:02:39.517Z,987.0
2017-12-14T09:03:40.920Z,987.0
2017-12-14T09:04:42.437Z,986.9
2017-12-14T09:05:43.838Z,987.0
2017-12-14T09:06:45.237Z,987.1
2017-12-14T09:07:46.674Z,987.1
2017-12-14T09:08:48.070Z,987.0
2017-12-14T09:09:49.475Z,987.1
2017-12-14T09:10:50.994Z,987.1
2017-12-14T09:11:52.388Z,987.1
2017-12-14T09:12:53.813Z,987.1
2017-12-14T09:13:55.297Z,987.1
2017-12-14T09:14:57.318Z,987.1
2017-12-14T09:15:58.717Z,987.1
2017-12-14T09:17:00.242Z,987.0
2017-12-14T09:18:01.663Z,987.0
2017-12-14T09:19:03.130Z,987.0
2017-12-14T09:20:04.543Z,987.0
2017-12-14T09:21:06.008Z,987.0
2017-12-14T09:22:07.413Z,987.0
2017-12-14T09:23:08.877Z,986.9
2017-12-14T09:24:10.279Z,987.0
2017-12-14T09:25:11.755Z,987.0
2017-12-14T09:26:13.159Z,987.0
2017-12-14T09:27:14.636Z,987.0
2017-12-14T09:28:16.033Z,986.9
2017-12-14T09:29:17.518Z,987.1
2017-12-14T09:30:18.919Z,987.1
2017-12-14T09:31:20.322Z,987.0
2017-12-14T09:32:23.062Z,987.0
2017-12-14T09:33:24.480Z,987.0
2017-12-14T09:34:25.872Z,986.9
2017-12-14T09:35:27.289Z,987.0
2017-12-14T09:36:28.687Z,987.0
2017-12-14T09:37:30.168Z,987.0
2017-12-14T09:38:31.573Z,987.0
2017-12-14T09:39:32.975Z,987.0
2017-12-14T09:40:34.488Z,987.0
2017-12-14T09:41:35.892Z,987.0
2017-12-14T09:42:37.296Z,986.9
2017-12-14T09:43:38.832Z,986.9
2017-12-14T09:44:40.259Z,986.9
2017-12-14T09:45:41.637Z,986.9
2017-12-14T09:46:43.134Z,986.8
2017-12-14T09:47:44.557Z,986.9
2017-12-14T09:48:46.012Z,986.8
2017-12-14T09:49:47.421Z,986.8
2017-12-14T09:50:48.892Z,986.9
2017-12-14T09:51:50.304Z,986.9
2017-12-14T09:52:51.773Z,986.9
2017-12-14T09:53:53.178Z,986.9
2017-12-14T09:54:54.653Z,986.8
2017-12-14T09:55:56.063Z,986.9
2017-12-14T09:56:57.473Z,987.0
2017-12-14T09:57:58.876Z,986.8
2017-12-14T09:59:00.283Z,987.0
2017-12-14T10:00:01.687Z,986.9
2017-12-14T10:01:04.914Z,987.0
2017-12-14T10:02:06.359Z,987.0
2017-12-14T10:03:07.756Z,986.9
2017-12-14T10:04:09.162Z,986.9
2017-12-14T10:05:10.565Z,986.9
2017-12-14T10:06:11.971Z,987.0
2017-12-14T10:07:13.379Z,987.0
2017-12-14T10:08:14.776Z,987.0
2017-12-14T10:09:16.183Z,987.1
2017-12-14T10:10:17.591Z,987.0
2017-12-14T10:11:19.005Z,987.0
2017-12-14T10:12:20.407Z,987.0
2017-12-14T10:13:21.816Z,987.0
2017-12-14T10:14:23.221Z,986.9
2017-12-14T10:15:24.623Z,987.0
2017-12-14T10:16:26.034Z,987.0
2017-12-14T10:17:27.505Z,986.9
2017-12-14T10:18:28.906Z,986.9
2017-12-14T10:19:30.318Z,986.8
2017-12-14T10:20:31.734Z,986.9
2017-12-14T10:21:33.158Z,986.9
2017-12-14T10:22:34.557Z,986.8
2017-12-14T10:23:36.001Z,986.8
2017-12-14T10:24:37.403Z,986.8
2017-12-14T10:25:38.806Z,986.9
2017-12-14T10:26:40.209Z,986.9
2017-12-14T10:27:41.670Z,986.9
2017-12-14T10:28:43.075Z,986.9
2017-12-14T10:29:44.551Z,986.9
2017-12-14T10:30:45.953Z,986.8
2017-12-14T10:31:47.357Z,986.7
2017-12-14T10:32:48.869Z,986.8
2017-12-14T10:33:50.270Z,986.7
2017-12-14T10:34:51.675Z,986.7
2017-12-14T10:35:53.193Z,986.7
2017-12-14T10:36:54.598Z,986.7
2017-12-14T10:37:56.073Z,986.7
2017-12-14T10:38:57.474Z,986.6
2017-12-14T10:39:58.970Z,986.6
2017-12-14T10:41:00.371Z,986.5
2017-12-14T10:42:01.835Z,986.7
2017-12-14T10:43:03.238Z,986.6
2017-12-14T10:44:04.712Z,986.6
2017-12-14T10:45:06.117Z,986.6
2017-12-14T10:46:07.595Z,986.5
2017-12-14T10:47:08.994Z,986.6
2017-12-14T10:48:10.474Z,986.6
2017-12-14T10:49:11.879Z,986.6
2017-12-14T10:50:13.358Z,986.6
2017-12-14T10:51:14.761Z,986.6
2017-12-14T10:52:16.237Z,986.6
2017-12-14T10:53:17.640Z,986.6
2017-12-14T10:54:19.150Z,986.6
2017-12-14T10:55:20.553Z,986.5
2017-12-14T10:56:22.000Z,986.6
2017-12-14T10:57:23.400Z,986.7
2017-12-14T10:58:24.884Z,986.6
2017-12-14T10:59:26.283Z,986.5
2017-12-14T11:00:27.764Z,986.6
2017-12-14T11:01:29.166Z,986.6
2017-12-14T11:02:30.571Z,986.6
2017-12-14T11:03:32.082Z,986.5
2017-12-14T11:04:33.484Z,986.6
2017-12-14T11:05:34.902Z,986.7
2017-12-14T11:06:36.403Z,986.6
2017-12-14T11:07:37.807Z,986.5
2017-12-14T11:08:39.287Z,986.7
2017-12-14T11:09:40.688Z,986.5
2017-12-14T11:10:42.165Z,986.5
2017-12-14T11:11:43.572Z,986.4
2017-12-14T11:12:44.981Z,986.6
2017-12-14T11:13:46.486Z,986.6
2017-12-14T11:14:47.891Z,986.5
2017-12-14T11:15:49.293Z,986.4
2017-12-14T11:16:50.808Z,986.6
2017-12-14T11:17:52.213Z,986.6
2017-12-14T11:18:53.688Z,986.5
2017-12-14T11:19:55.093Z,986.6
2017-12-14T11:20:56.569Z,986.6
2017-12-14T11:21:57.974Z,986.6
2017-12-14T11:22:59.378Z,986.5
2017-12-14T11:24:00.900Z,986.9
2017-12-14T11:25:02.301Z,986.4
2017-12-14T11:26:03.704Z,986.6
2017-12-14T11:27:05.211Z,986.5
2017-12-14T11:28:06.617Z,986.6
2017-12-14T11:29:08.090Z,986.6
2017-12-14T11:30:09.497Z,986.4
2017-12-14T11:31:10.973Z,986.7
2017-12-14T11:32:12.378Z,986.6
2017-12-14T11:33:13.792Z,986.6
2017-12-14T11:34:15.294Z,986.7
2017-12-14T11:35:16.697Z,986.5
2017-12-14T11:36:18.104Z,986.6
2017-12-14T11:37:19.617Z,986.6
2017-12-14T11:38:21.020Z,986.6
2017-12-14T11:39:22.496Z,986.6
2017-12-14T11:40:23.954Z,986.6
2017-12-14T11:41:25.383Z,986.6
2017-12-14T11:42:26.788Z,986.6
2017-12-14T11:43:28.194Z,986.6
2017-12-14T11:44:29.698Z,986.7
2017-12-14T11:45:31.102Z,986.7
2017-12-14T11:46:32.509Z,986.7
2017-12-14T11:47:34.020Z,986.6
2017-12-14T11:48:35.425Z,986.6
2017-12-14T11:49:36.833Z,986.7
2017-12-14T11:50:38.340Z,986.7
2017-12-14T11:51:39.748Z,986.7
2017-12-14T11:52:41.156Z,986.6
2017-12-14T11:53:42.661Z,986.5
2017-12-14T11:54:44.068Z,986.7
2017-12-14T11:55:45.473Z,986.6
2017-12-14T11:56:46.979Z,986.7
2017-12-14T11:57:48.383Z,986.6
2017-12-14T11:58:49.860Z,986.8
2017-12-14T11:59:51.264Z,986.6
2017-12-14T12:00:52.741Z,986.7
2017-12-14T12:01:54.147Z,986.7
2017-12-14T12:02:55.624Z,986.7
2017-12-14T12:03:57.031Z,986.7
2017-12-14T12:04:58.511Z,986.7
2017-12-14T12:05:59.917Z,986.7
2017-12-14T12:07:01.386Z,986.6
2017-12-14T12:08:02.800Z,986.6
2017-12-14T12:09:04.267Z,986.6
2017-12-14T12:10:05.673Z,986.7
2017-12-14T12:11:07.148Z,986.6
2017-12-14T12:12:08.551Z,986.6
2017-12-14T12:13:09.956Z,986.6
2017-12-14T12:14:11.469Z,986.6
2017-12-14T12:15:12.875Z,986.7
2017-12-14T12:16:14.285Z,986.6
2017-12-14T12:17:15.790Z,986.6
2017-12-14T12:18:17.197Z,986.6
2017-12-14T12:19:18.607Z,986.6
2017-12-14T12:20:20.112Z,986.6
2017-12-14T12:21:21.517Z,986.7
2017-12-14T12:22:22.922Z,986.7
2017-12-14T12:23:24.432Z,986.6
2017-12-14T12:24:25.837Z,986.6
2017-12-14T12:25:27.244Z,986.6
2017-12-14T12:26:28.753Z,986.6
2017-12-14T12:27:30.156Z,986.6
2017-12-14T12:28:31.561Z,986.6
2017-12-14T12:29:33.096Z,986.6
2017-12-14T12:30:34.490Z,986.6
2017-12-14T12:31:35.952Z,986.5
2017-12-14T12:32:37.361Z,986.5
2017-12-14T12:33:38.836Z,986.6
2017-12-14T12:34:40.237Z,986.6
2017-12-14T12:35:41.715Z,986.6
2017-12-14T12:36:43.117Z,986.6
2017-12-14T12:37:44.543Z,986.5
2017-12-14T12:38:46.038Z,986.6
2017-12-14T12:39:47.443Z,986.7
2017-12-14T12:40:48.846Z,986.6
2017-12-14T12:41:50.361Z,986.6
2017-12-14T12:42:51.764Z,986.5
2017-12-14T12:43:53.167Z,986.5
2017-12-14T12:44:54.713Z,986.5
2017-12-14T12:45:56.087Z,986.5
2017-12-14T12:46:57.491Z,986.5
2017-12-14T12:47:59.001Z,986.5
2017-12-14T12:49:00.404Z,986.5
2017-12-14T12:50:01.806Z,986.5
2017-12-14T12:51:03.321Z,986.5
2017-12-14T12:52:04.728Z,986.5
2017-12-14T12:53:06.132Z,986.5
2017-12-14T12:54:07.657Z,986.7
2017-12-14T12:55:09.066Z,986.8
2017-12-14T12:56:10.525Z,986.6
2017-12-14T12:57:11.939Z,986.6
2017-12-14T12:58:13.422Z,986.7
2017-12-14T12:59:14.825Z,986.7
2017-12-14T13:00:16.287Z,986.8
2017-12-14T13:01:17.704Z,986.7
2017-12-14T13:02:19.109Z,986.7
2017-12-14T13:03:20.682Z,986.7
2017-12-14T13:04:22.085Z,986.6
2017-12-14T13:05:23.590Z,986.5
2017-12-14T13:06:24.999Z,986.7
2017-12-14T13:07:26.472Z,986.6
2017-12-14T13:08:27.877Z,986.6
2017-12-14T13:09:29.281Z,986.6
2017-12-14T13:10:30.834Z,986.6
2017-12-14T13:11:32.232Z,986.6